createdAt,value
2023-01-19T00:00:28.088Z,2.72
2023-01-19T00:02:55.069Z,3.20
2023-01-19T00:05:21.894Z,3.05
2023-01-19T00:07:48.489Z,3.26
2023-01-19T00:10:14.972Z,3.05
2023-01-19T00:12:41.434Z,3.03
2023-01-19T00:15:08.518Z,3.04
2023-01-19T00:17:35.028Z,2.92
2023-01-19T00:20:01.533Z,3.29
2023-01-19T00:22:28.002Z,3.23
2023-01-19T00:24:54.509Z,3.17
2023-01-19T00:27:21.032Z,3.07
2023-01-19T00:29:47.525Z,2.69
2023-01-19T00:32:14.074Z,3.17
2023-01-19T00:34:49.408Z,3.06
2023-01-19T00:37:17.102Z,2.95
2023-01-19T00:39:43.907Z,3.22
2023-01-19T00:42:32.058Z,3.35
2023-01-19T00:44:58.556Z,3.36
2023-01-19T00:47:25.487Z,3.17
2023-01-19T00:49:52.043Z,3.11
2023-01-19T00:52:18.502Z,3.21
2023-01-19T00:54:44.977Z,3.68
2023-01-19T00:57:11.457Z,3.27
2023-01-19T00:59:37.935Z,3.42
2023-01-19T01:02:04.611Z,3.13
2023-01-19T01:04:31.319Z,3.42
2023-01-19T01:06:57.766Z,3.33
2023-01-19T01:09:24.548Z,3.11
2023-01-19T01:11:51.004Z,3.60
2023-01-19T01:14:18.253Z,3.17
2023-01-19T01:16:45.018Z,3.23
2023-01-19T01:19:11.583Z,3.43
2023-01-19T01:21:38.135Z,3.41
2023-01-19T01:24:05.381Z,3.68
2023-01-19T01:26:31.853Z,3.62
2023-01-19T01:28:58.370Z,3.71
2023-01-19T01:31:25.472Z,3.51
2023-01-19T01:33:52.044Z,3.46
2023-01-19T01:36:21.338Z,3.55
2023-01-19T01:38:47.974Z,3.85
2023-01-19T01:41:14.639Z,3.87
2023-01-19T01:43:45.889Z,3.39
2023-01-19T01:46:15.795Z,3.54
2023-01-19T01:48:46.315Z,3.53
2023-01-19T01:51:24.467Z,3.56
2023-01-19T01:54:04.041Z,3.69
2023-01-19T01:56:42.978Z,3.95
2023-01-19T01:59:13.732Z,3.52
2023-01-19T02:01:59.033Z,3.46
2023-01-19T02:04:26.619Z,3.73
2023-01-19T02:07:11.815Z,3.42
2023-01-19T02:09:56.819Z,3.74
2023-01-19T02:12:41.996Z,3.39
2023-01-19T02:15:20.204Z,3.81
2023-01-19T02:17:46.980Z,3.52
2023-01-19T02:20:13.925Z,3.64
2023-01-19T02:22:50.334Z,3.73
2023-01-19T02:25:19.331Z,3.42
2023-01-19T02:27:46.057Z,3.34
2023-01-19T02:30:13.856Z,3.36
2023-01-19T02:32:40.331Z,3.74
2023-01-19T02:35:07.244Z,3.77
2023-01-19T02:37:37.554Z,3.61
2023-01-19T02:40:05.659Z,3.67
2023-01-19T02:42:38.283Z,3.93
2023-01-19T02:45:06.964Z,3.73
2023-01-19T02:47:42.021Z,3.81
2023-01-19T02:50:38.396Z,3.86
2023-01-19T02:53:29.724Z,3.68
2023-01-19T02:56:07.216Z,3.79
2023-01-19T02:58:49.245Z,3.79
2023-01-19T03:01:30.247Z,3.76
2023-01-19T03:04:26.513Z,3.81
2023-01-19T03:07:00.767Z,3.75
2023-01-19T03:09:48.950Z,3.63
2023-01-19T03:12:41.619Z,3.64
2023-01-19T03:15:16.272Z,3.29
2023-01-19T03:17:44.543Z,3.58
2023-01-19T03:20:14.035Z,4.11
2023-01-19T03:22:41.046Z,4.01
2023-01-19T03:25:07.815Z,3.99
2023-01-19T03:27:41.247Z,3.88
2023-01-19T03:30:18.697Z,3.87
2023-01-19T03:32:49.928Z,3.71
2023-01-19T03:35:17.646Z,3.93
2023-01-19T03:37:45.358Z,3.99
2023-01-19T03:40:12.454Z,4.20
2023-01-19T03:42:39.598Z,3.98
2023-01-19T03:45:07.030Z,3.75
2023-01-19T03:47:34.060Z,3.84
2023-01-19T03:50:03.048Z,3.82
2023-01-19T03:52:33.515Z,4.04
2023-01-19T03:55:01.325Z,3.82
2023-01-19T03:57:27.959Z,3.85
2023-01-19T03:59:54.455Z,3.73
2023-01-19T04:02:20.969Z,3.74
2023-01-19T04:04:47.800Z,4.23
2023-01-19T04:07:14.375Z,3.63
2023-01-19T04:09:40.904Z,3.82
2023-01-19T04:12:07.823Z,3.74
2023-01-19T04:14:34.289Z,3.91
2023-01-19T04:17:00.770Z,3.63
2023-01-19T04:19:27.239Z,3.98
2023-01-19T04:21:53.742Z,4.09
2023-01-19T04:24:20.195Z,3.89
2023-01-19T04:26:46.707Z,4.27
2023-01-19T04:29:14.363Z,4.38
2023-01-19T04:31:41.165Z,4.04
2023-01-19T04:34:07.605Z,3.81
2023-01-19T04:36:34.095Z,3.64
2023-01-19T04:39:00.513Z,3.75
2023-01-19T04:41:26.968Z,3.78
2023-01-19T04:43:53.545Z,3.63
2023-01-19T04:46:20.023Z,3.71
2023-01-19T04:48:46.496Z,3.96
2023-01-19T04:51:12.978Z,3.80
2023-01-19T04:53:39.521Z,3.84
2023-01-19T04:56:06.071Z,3.87
2023-01-19T04:58:32.551Z,4.02
2023-01-19T05:00:59.153Z,4.25
2023-01-19T05:03:26.656Z,4.07
2023-01-19T05:05:53.393Z,4.13
2023-01-19T05:08:19.950Z,3.92
2023-01-19T05:10:46.425Z,3.63
2023-01-19T05:13:14.108Z,4.22
2023-01-19T05:15:40.547Z,3.87
2023-01-19T05:18:07.000Z,4.48
2023-01-19T05:20:33.460Z,3.88
2023-01-19T05:23:00.300Z,3.97
2023-01-19T05:25:26.983Z,3.94
2023-01-19T05:27:53.480Z,4.18
2023-01-19T05:30:19.976Z,3.95
2023-01-19T05:32:46.767Z,3.69
2023-01-19T05:35:20.195Z,4.09
2023-01-19T05:37:51.551Z,4.12
2023-01-19T05:40:18.187Z,3.78
2023-01-19T05:42:44.639Z,4.15
2023-01-19T05:45:11.944Z,4.02
2023-01-19T05:47:38.412Z,3.92
2023-01-19T05:50:05.350Z,4.07
2023-01-19T05:52:31.921Z,4.01
2023-01-19T05:54:58.353Z,4.35
2023-01-19T05:57:24.885Z,3.52
2023-01-19T05:59:51.330Z,4.03
2023-01-19T06:02:17.839Z,4.06
2023-01-19T06:04:44.843Z,4.09
2023-01-19T06:07:11.369Z,4.64
2023-01-19T06:09:37.838Z,4.12
2023-01-19T06:12:04.644Z,4.09
2023-01-19T06:14:32.501Z,4.28
2023-01-19T06:16:58.937Z,4.00
2023-01-19T06:19:25.596Z,4.06
2023-01-19T06:21:52.443Z,4.07
2023-01-19T06:24:19.416Z,4.04
2023-01-19T06:26:46.075Z,4.33
2023-01-19T06:29:13.785Z,4.35
2023-01-19T06:31:40.801Z,4.20
2023-01-19T06:34:07.519Z,3.87
2023-01-19T06:36:34.015Z,4.28
2023-01-19T06:39:03.367Z,4.04
2023-01-19T06:41:29.982Z,3.90
2023-01-19T06:43:56.493Z,4.22
2023-01-19T06:46:22.984Z,4.08
2023-01-19T06:48:49.430Z,3.68
2023-01-19T06:51:15.873Z,4.12
2023-01-19T06:53:42.344Z,3.98
2023-01-19T06:56:09.682Z,3.58
2023-01-19T06:58:36.686Z,3.63
2023-01-19T07:01:04.985Z,4.12
2023-01-19T07:03:31.835Z,4.14
2023-01-19T07:06:00.857Z,3.78
2023-01-19T07:08:27.338Z,4.00
2023-01-19T07:11:25.564Z,3.73
2023-01-19T07:13:51.410Z,4.19
2023-01-19T07:16:17.899Z,3.83
2023-01-19T07:18:45.269Z,3.84
2023-01-19T07:21:11.722Z,4.08
2023-01-19T07:23:38.615Z,4.11
2023-01-19T07:26:05.217Z,3.52
2023-01-19T07:28:32.928Z,3.58
2023-01-19T07:30:59.601Z,3.68
2023-01-19T07:33:26.308Z,3.81
2023-01-19T07:35:53.261Z,3.60
2023-01-19T07:38:20.459Z,3.41
2023-01-19T07:40:47.180Z,3.59
2023-01-19T07:43:14.534Z,3.61
2023-01-19T07:45:41.343Z,3.76
2023-01-19T07:48:07.892Z,3.41
2023-01-19T07:50:34.393Z,3.55
2023-01-19T07:53:08.499Z,3.81
2023-01-19T07:55:35.376Z,3.50
2023-01-19T07:58:03.964Z,3.97
2023-01-19T08:00:30.578Z,3.62
2023-01-19T08:03:00.483Z,3.65
2023-01-19T08:05:29.200Z,3.74
2023-01-19T08:08:00.387Z,3.60
2023-01-19T08:10:28.479Z,3.77
2023-01-19T08:12:56.078Z,3.74
2023-01-19T08:15:24.541Z,3.75
2023-01-19T08:18:01.067Z,3.93
2023-01-19T08:20:28.930Z,3.93
2023-01-19T08:23:00.144Z,4.12
2023-01-19T08:25:37.490Z,3.99
2023-01-19T08:28:05.394Z,3.91
2023-01-19T08:30:33.064Z,3.73
2023-01-19T08:33:08.081Z,4.04
2023-01-19T08:35:37.081Z,4.39
2023-01-19T08:38:05.078Z,4.01
2023-01-19T08:40:35.935Z,4.20
2023-01-19T08:43:09.264Z,4.73
2023-01-19T08:45:36.820Z,4.44
2023-01-19T08:48:04.269Z,4.24
2023-01-19T08:50:32.500Z,4.11
2023-01-19T08:53:01.360Z,4.17
2023-01-19T08:55:28.828Z,4.43
2023-01-19T08:58:00.500Z,4.88
2023-01-19T09:00:27.708Z,4.58
2023-01-19T09:02:54.979Z,4.40
2023-01-19T09:05:21.569Z,4.01
2023-01-19T09:07:48.239Z,4.20
2023-01-19T09:10:15.829Z,4.51
2023-01-19T09:12:43.523Z,4.70
2023-01-19T09:15:10.894Z,4.67
2023-01-19T09:17:37.497Z,4.57
2023-01-19T09:20:05.970Z,4.18
2023-01-19T09:22:33.322Z,4.61
2023-01-19T09:25:00.338Z,4.78
2023-01-19T09:27:26.785Z,4.68
2023-01-19T09:29:54.070Z,4.54
2023-01-19T09:32:21.264Z,4.37
2023-01-19T09:34:48.024Z,4.88
2023-01-19T09:37:16.123Z,4.98
2023-01-19T09:39:42.730Z,4.56
2023-01-19T09:42:22.046Z,4.73
2023-01-19T09:44:50.291Z,4.74
2023-01-19T09:47:18.472Z,4.68
2023-01-19T09:49:48.754Z,4.67
2023-01-19T09:52:15.731Z,4.84
2023-01-19T09:54:44.170Z,4.56
2023-01-19T09:57:11.800Z,4.69
2023-01-19T09:59:38.928Z,4.92
2023-01-19T10:02:34.077Z,4.31
2023-01-19T10:05:20.315Z,4.57
2023-01-19T10:08:08.940Z,4.60
2023-01-19T10:10:37.391Z,5.12
2023-01-19T10:13:45.744Z,4.73
2023-01-19T10:16:15.297Z,4.73
2023-01-19T10:18:47.684Z,4.39
2023-01-19T10:21:28.366Z,4.55
2023-01-19T10:24:19.831Z,4.53
2023-01-19T10:26:49.236Z,4.89
2023-01-19T10:29:23.037Z,4.47
2023-01-19T10:31:52.400Z,4.57
2023-01-19T10:34:23.688Z,4.45
2023-01-19T10:36:57.438Z,4.40
2023-01-19T10:39:23.933Z,4.80
2023-01-19T10:41:52.677Z,4.51
2023-01-19T10:44:30.101Z,4.56
2023-01-19T10:46:58.838Z,4.58
2023-01-19T10:49:42.551Z,4.27
2023-01-19T10:52:27.154Z,4.44
2023-01-19T10:54:54.266Z,4.58
2023-01-19T10:57:49.304Z,4.19
2023-01-19T11:00:37.819Z,4.66
2023-01-19T11:03:30.183Z,4.97
2023-01-19T11:06:15.529Z,4.31
2023-01-19T11:08:43.793Z,4.69
2023-01-19T11:11:12.433Z,4.95
2023-01-19T11:13:42.703Z,4.51
2023-01-19T11:16:28.026Z,4.65
2023-01-19T11:18:56.367Z,5.07
2023-01-19T11:21:26.063Z,4.83
2023-01-19T11:23:58.228Z,4.60
2023-01-19T11:26:25.655Z,5.06
2023-01-19T11:28:54.663Z,5.08
2023-01-19T11:31:27.434Z,4.65
2023-01-19T11:33:56.571Z,4.86
2023-01-19T11:36:25.321Z,5.01
2023-01-19T11:38:53.971Z,4.89
2023-01-19T11:41:26.512Z,4.96
2023-01-19T11:43:55.667Z,5.03
2023-01-19T11:46:24.753Z,5.39
2023-01-19T11:49:36.202Z,5.03
2023-01-19T11:52:11.192Z,5.06
2023-01-19T11:54:47.443Z,5.18
2023-01-19T11:57:17.125Z,5.42
2023-01-19T11:59:44.632Z,5.22
2023-01-19T12:02:21.361Z,5.14
2023-01-19T12:04:48.505Z,5.68
2023-01-19T12:07:18.924Z,5.74
2023-01-19T12:09:47.750Z,5.05
2023-01-19T12:12:35.260Z,4.94
2023-01-19T12:15:30.027Z,5.30
2023-01-19T12:17:59.883Z,5.02
2023-01-19T12:20:38.517Z,4.98
2023-01-19T12:23:11.036Z,5.28
2023-01-19T12:25:43.528Z,5.05
2023-01-19T12:28:13.660Z,5.22
2023-01-19T12:30:40.270Z,5.67
2023-01-19T12:33:34.939Z,5.59
2023-01-19T12:36:10.563Z,5.33
2023-01-19T12:38:47.760Z,5.66
2023-01-19T12:41:25.318Z,5.75
2023-01-19T12:44:16.380Z,5.72
2023-01-19T12:46:50.116Z,5.62
2023-01-19T12:49:27.237Z,5.70
2023-01-19T12:52:11.232Z,5.95
2023-01-19T12:54:38.080Z,6.24
2023-01-19T12:57:18.295Z,5.97
2023-01-19T12:59:44.891Z,6.08
2023-01-19T13:02:20.583Z,5.58
2023-01-19T13:05:15.057Z,5.76
2023-01-19T13:08:04.876Z,5.77
2023-01-19T13:10:54.037Z,6.07
2023-01-19T13:13:30.479Z,5.72
2023-01-19T13:16:27.448Z,5.89
2023-01-19T13:19:06.255Z,5.73
2023-01-19T13:21:35.717Z,5.23
2023-01-19T13:24:04.712Z,5.61
2023-01-19T13:26:33.597Z,6.07
2023-01-19T13:29:07.585Z,6.11
2023-01-19T13:31:35.464Z,5.91
2023-01-19T13:34:02.997Z,5.78
2023-01-19T13:36:35.804Z,5.53
2023-01-19T13:39:05.653Z,5.96
2023-01-19T13:41:36.170Z,6.35
2023-01-19T13:44:12.833Z,6.36
2023-01-19T13:46:40.631Z,6.20
2023-01-19T13:49:40.553Z,6.64
2023-01-19T13:52:07.891Z,6.31
2023-01-19T13:54:34.433Z,6.16
2023-01-19T13:57:00.877Z,6.35
2023-01-19T13:59:27.365Z,6.23
2023-01-19T14:01:54.406Z,6.13
2023-01-19T14:04:32.231Z,6.33
2023-01-19T14:07:02.309Z,6.03
2023-01-19T14:09:29.049Z,6.27
2023-01-19T14:12:17.401Z,6.49
2023-01-19T14:14:46.806Z,6.55
2023-01-19T14:17:28.208Z,6.24
2023-01-19T14:19:57.030Z,6.35
2023-01-19T14:22:42.651Z,6.34
2023-01-19T14:25:28.325Z,6.22
2023-01-19T14:28:49.168Z,6.55
2023-01-19T14:31:23.352Z,6.32
2023-01-19T14:33:52.749Z,6.46
2023-01-19T14:36:28.977Z,6.30
2023-01-19T14:38:58.512Z,6.20
2023-01-19T14:41:36.610Z,6.34
2023-01-19T14:44:11.117Z,6.28
2023-01-19T14:46:38.189Z,6.13
2023-01-19T14:49:06.148Z,6.15
2023-01-19T14:51:32.806Z,6.12
2023-01-19T14:54:00.809Z,6.36
2023-01-19T14:56:32.357Z,6.49
2023-01-19T14:59:01.033Z,6.41
2023-01-19T15:01:28.731Z,6.70
2023-01-19T15:03:58.717Z,6.48
2023-01-19T15:06:26.088Z,6.51
2023-01-19T15:08:56.058Z,6.36
2023-01-19T15:11:30.431Z,6.18
2023-01-19T15:13:57.541Z,6.20
2023-01-19T15:16:24.869Z,6.03
2023-01-19T15:18:51.628Z,6.33
2023-01-19T15:21:26.796Z,6.46
2023-01-19T15:23:58.163Z,6.37
2023-01-19T15:26:25.826Z,6.68
2023-01-19T15:28:52.577Z,6.66
2023-01-19T15:31:23.864Z,6.47
2023-01-19T15:34:11.720Z,6.19
2023-01-19T15:36:38.239Z,6.54
2023-01-19T15:39:04.708Z,6.54
2023-01-19T15:41:31.229Z,6.09
2023-01-19T15:43:58.468Z,5.89
2023-01-19T15:46:25.836Z,5.96
2023-01-19T15:48:52.965Z,5.82
2023-01-19T15:51:22.004Z,6.10
2023-01-19T15:53:49.386Z,6.18
2023-01-19T15:56:21.868Z,5.82
2023-01-19T15:58:48.297Z,6.19
2023-01-19T16:01:17.117Z,5.59
2023-01-19T16:03:43.815Z,6.26
2023-01-19T16:06:10.777Z,5.80
2023-01-19T16:08:37.722Z,6.12
2023-01-19T16:11:15.378Z,5.73
2023-01-19T16:13:46.189Z,5.74
2023-01-19T16:16:16.310Z,5.56
2023-01-19T16:18:43.038Z,5.41
2023-01-19T16:21:09.528Z,6.02
2023-01-19T16:23:36.031Z,5.60
2023-01-19T16:26:07.696Z,5.73
2023-01-19T16:28:35.795Z,5.91
2023-01-19T16:31:02.339Z,5.72
2023-01-19T16:33:28.869Z,5.73
2023-01-19T16:35:55.403Z,5.76
2023-01-19T16:38:23.438Z,5.81
2023-01-19T16:40:49.881Z,5.46
2023-01-19T16:43:16.540Z,5.91
2023-01-19T16:46:00.317Z,5.66
2023-01-19T16:48:27.531Z,6.06
2023-01-19T16:51:05.803Z,5.82
2023-01-19T16:53:37.151Z,5.77
2023-01-19T16:56:13.972Z,5.57
2023-01-19T16:58:41.545Z,5.74
2023-01-19T17:01:19.729Z,5.87
2023-01-19T17:03:47.334Z,5.60
2023-01-19T17:06:15.796Z,5.67
2023-01-19T17:08:42.266Z,5.35
2023-01-19T17:11:11.168Z,5.51
2023-01-19T17:13:37.831Z,5.39
2023-01-19T17:16:05.386Z,5.41
2023-01-19T17:18:34.369Z,5.58
2023-01-19T17:21:07.655Z,5.21
2023-01-19T17:23:35.227Z,5.13
2023-01-19T17:26:02.205Z,5.08
2023-01-19T17:28:28.736Z,5.01
2023-01-19T17:30:55.307Z,5.07
2023-01-19T17:33:23.135Z,4.91
2023-01-19T17:35:49.816Z,5.09
2023-01-19T17:38:16.727Z,4.83
2023-01-19T17:40:43.176Z,5.10
2023-01-19T17:43:09.628Z,5.05
2023-01-19T17:45:36.945Z,4.84
2023-01-19T17:48:04.438Z,4.76
2023-01-19T17:50:32.539Z,4.89
2023-01-19T17:52:59.024Z,5.01
2023-01-19T17:55:25.535Z,4.80
2023-01-19T17:57:52.060Z,4.85
2023-01-19T18:00:19.013Z,4.76
2023-01-19T18:02:49.129Z,4.84
2023-01-19T18:05:15.663Z,4.67
2023-01-19T18:07:42.212Z,4.67
2023-01-19T18:10:09.498Z,4.50
2023-01-19T18:12:35.997Z,4.12
2023-01-19T18:15:03.357Z,4.61
2023-01-19T18:17:30.639Z,4.31
2023-01-19T18:19:57.168Z,4.71
2023-01-19T18:22:23.713Z,4.34
2023-01-19T18:24:50.323Z,4.07
2023-01-19T18:27:16.953Z,4.67
2023-01-19T18:29:44.030Z,4.48
2023-01-19T18:32:10.812Z,4.56
2023-01-19T18:34:38.446Z,4.32
2023-01-19T18:37:04.902Z,4.16
2023-01-19T18:39:31.378Z,4.29
2023-01-19T18:41:57.895Z,4.63
2023-01-19T18:44:24.437Z,3.99
2023-01-19T18:46:50.995Z,4.42
2023-01-19T18:49:17.718Z,3.92
2023-01-19T18:51:44.217Z,3.85
2023-01-19T18:54:11.039Z,4.45
2023-01-19T18:56:37.483Z,4.27
2023-01-19T18:59:09.023Z,3.95
2023-01-19T19:01:40.004Z,4.28
2023-01-19T19:04:08.190Z,4.27
2023-01-19T19:06:35.767Z,4.18
2023-01-19T19:09:03.318Z,3.74
2023-01-19T19:11:29.965Z,4.24
2023-01-19T19:13:59.406Z,3.91
2023-01-19T19:16:25.966Z,4.07
2023-01-19T19:18:53.300Z,4.00
2023-01-19T19:21:20.834Z,4.22
2023-01-19T19:23:55.395Z,3.92
2023-01-19T19:26:23.592Z,3.98
2023-01-19T19:28:50.177Z,4.32
2023-01-19T19:31:20.608Z,3.94
2023-01-19T19:33:49.172Z,4.11
2023-01-19T19:36:15.681Z,3.86
2023-01-19T19:38:44.522Z,4.31
2023-01-19T19:41:17.363Z,4.11
2023-01-19T19:43:44.680Z,4.03
2023-01-19T19:46:15.659Z,3.72
2023-01-19T19:48:42.869Z,3.85
2023-01-19T19:51:18.576Z,3.99
2023-01-19T19:53:45.853Z,3.61
2023-01-19T19:56:14.016Z,3.89
2023-01-19T19:58:42.448Z,3.92
2023-01-19T20:01:21.137Z,4.10
2023-01-19T20:03:50.299Z,3.58
2023-01-19T20:06:21.306Z,4.22
2023-01-19T20:08:49.138Z,4.02
2023-01-19T20:11:21.141Z,4.00
2023-01-19T20:13:47.796Z,4.04
2023-01-19T20:16:16.609Z,4.07
2023-01-19T20:18:44.954Z,4.26
2023-01-19T20:21:17.175Z,3.93
2023-01-19T20:23:44.428Z,4.04
2023-01-19T20:26:43.677Z,4.11
2023-01-19T20:29:11.117Z,4.37
2023-01-19T20:31:47.332Z,3.94
2023-01-19T20:34:16.768Z,3.88
2023-01-19T20:36:46.794Z,3.76
2023-01-19T20:39:13.277Z,3.85
2023-01-19T20:41:51.064Z,4.08
2023-01-19T20:44:21.456Z,3.69
2023-01-19T20:46:48.681Z,3.30
2023-01-19T20:49:15.333Z,3.58
2023-01-19T20:51:45.048Z,3.81
2023-01-19T20:54:13.620Z,4.14
2023-01-19T20:56:41.908Z,3.60
2023-01-19T20:59:09.605Z,3.52
2023-01-19T21:01:37.567Z,3.62
2023-01-19T21:04:04.358Z,3.73
2023-01-19T21:06:31.367Z,4.25
2023-01-19T21:08:57.870Z,3.88
2023-01-19T21:11:24.482Z,3.94
2023-01-19T21:13:56.092Z,3.77
2023-01-19T21:16:25.665Z,3.76
2023-01-19T21:18:53.148Z,4.06
2023-01-19T21:21:29.880Z,4.15
2023-01-19T21:23:58.944Z,3.84
2023-01-19T21:26:25.662Z,3.72
2023-01-19T21:28:52.445Z,3.91
2023-01-19T21:31:20.895Z,3.55
2023-01-19T21:33:49.292Z,3.63
2023-01-19T21:36:16.127Z,3.85
2023-01-19T21:38:43.054Z,3.59
2023-01-19T21:41:12.631Z,4.00
2023-01-19T21:43:44.026Z,3.88
2023-01-19T21:46:11.273Z,3.92
2023-01-19T21:48:38.246Z,4.36
2023-01-19T21:51:05.087Z,4.01
2023-01-19T21:53:31.583Z,4.06
2023-01-19T21:55:58.860Z,4.08
2023-01-19T21:58:25.513Z,4.37
2023-01-19T22:00:58.970Z,4.02
2023-01-19T22:03:27.301Z,3.96
2023-01-19T22:05:54.305Z,4.03
2023-01-19T22:08:20.738Z,4.23
2023-01-19T22:10:47.227Z,4.21
2023-01-19T22:13:14.102Z,4.23
2023-01-19T22:15:40.602Z,4.23
2023-01-19T22:18:07.113Z,4.17
2023-01-19T22:20:33.562Z,4.17
2023-01-19T22:23:00.104Z,4.38
2023-01-19T22:25:41.990Z,4.50
2023-01-19T22:28:08.439Z,4.27
2023-01-19T22:30:34.962Z,4.40
2023-01-19T22:33:01.478Z,4.48
2023-01-19T22:35:28.334Z,4.30
2023-01-19T22:37:54.779Z,4.40
2023-01-19T22:40:21.540Z,4.22
2023-01-19T22:42:57.198Z,4.34
2023-01-19T22:45:48.658Z,4.23
2023-01-19T22:48:15.085Z,4.19
2023-01-19T22:50:41.555Z,3.87
2023-01-19T22:53:08.016Z,4.13
2023-01-19T22:55:34.475Z,3.94
2023-01-19T22:58:00.893Z,3.73
2023-01-19T23:00:27.368Z,3.86
2023-01-19T23:02:53.809Z,4.05
2023-01-19T23:05:20.325Z,3.95
2023-01-19T23:07:46.771Z,4.07
2023-01-19T23:10:13.353Z,3.64
2023-01-19T23:12:39.875Z,4.03
2023-01-19T23:15:06.906Z,4.25
2023-01-19T23:17:33.373Z,3.95
2023-01-19T23:19:59.902Z,3.98
2023-01-19T23:22:26.383Z,3.97
2023-01-19T23:24:52.822Z,3.89
2023-01-19T23:27:19.318Z,4.22
2023-01-19T23:29:45.977Z,4.27
2023-01-19T23:32:12.463Z,3.96
2023-01-19T23:34:38.942Z,4.12
2023-01-19T23:37:05.461Z,4.07
2023-01-19T23:39:31.915Z,4.07
2023-01-19T23:41:58.432Z,4.08
2023-01-19T23:44:24.925Z,4.09
2023-01-19T23:46:51.456Z,3.95
2023-01-19T23:49:18.157Z,4.06
2023-01-19T23:51:44.611Z,3.82
2023-01-19T23:54:12.276Z,3.91
2023-01-19T23:56:39.248Z,4.59
2023-01-19T23:59:11.023Z,4.36
